sensor_id;sensor_type;location;lat;lon;timestamp;P1;durP1;ratioP1;P2;durP2;ratioP2
20118;SDS011;10220;42.716;23.306;2023-05-07T00:00:52;5.20;;;4.15;;
20118;SDS011;10220;42.716;23.306;2023-05-07T00:03:21;6.88;;;4.35;;
20118;SDS011;10220;42.716;23.306;2023-05-07T00:05:46;7.40;;;4.35;;
20118;SDS011;10220;42.716;23.306;2023-05-07T00:08:12;6.35;;;4.28;;
20118;SDS011;10220;42.716;23.306;2023-05-07T00:10:37;5.22;;;4.07;;
20118;SDS011;10220;42.716;23.306;2023-05-07T00:13:03;6.60;;;4.30;;
20118;SDS011;10220;42.716;23.306;2023-05-07T00:15:28;5.93;;;4.40;;
20118;SDS011;10220;42.716;23.306;2023-05-07T00:17:53;9.10;;;5.30;;
20118;SDS011;10220;42.716;23.306;2023-05-07T00:20:19;4.82;;;3.63;;
20118;SDS011;10220;42.716;23.306;2023-05-07T00:22:44;6.32;;;4.57;;
20118;SDS011;10220;42.716;23.306;2023-05-07T00:25:10;7.28;;;4.43;;
20118;SDS011;10220;42.716;23.306;2023-05-07T00:27:35;11.30;;;4.93;;
20118;SDS011;10220;42.716;23.306;2023-05-07T00:30:00;6.97;;;4.00;;
20118;SDS011;10220;42.716;23.306;2023-05-07T00:32:26;5.70;;;4.40;;
20118;SDS011;10220;42.716;23.306;2023-05-07T00:34:51;6.35;;;4.68;;
20118;SDS011;10220;42.716;23.306;2023-05-07T00:37:17;7.00;;;4.30;;
20118;SDS011;10220;42.716;23.306;2023-05-07T00:39:42;7.13;;;4.53;;
20118;SDS011;10220;42.716;23.306;2023-05-07T00:42:08;9.07;;;4.25;;
20118;SDS011;10220;42.716;23.306;2023-05-07T00:44:33;5.15;;;3.90;;
20118;SDS011;10220;42.716;23.306;2023-05-07T00:46:59;5.82;;;3.83;;
20118;SDS011;10220;42.716;23.306;2023-05-07T00:49:32;11.18;;;4.72;;
20118;SDS011;10220;42.716;23.306;2023-05-07T00:52:05;6.97;;;4.82;;
20118;SDS011;10220;42.716;23.306;2023-05-07T00:54:33;6.72;;;4.53;;
20118;SDS011;10220;42.716;23.306;2023-05-07T00:56:59;6.60;;;4.95;;
20118;SDS011;10220;42.716;23.306;2023-05-07T00:59:25;6.97;;;4.45;;
20118;SDS011;10220;42.716;23.306;2023-05-07T01:01:51;7.70;;;4.47;;
20118;SDS011;10220;42.716;23.306;2023-05-07T01:04:17;7.18;;;4.82;;
20118;SDS011;10220;42.716;23.306;2023-05-07T01:06:42;9.05;;;5.35;;
20118;SDS011;10220;42.716;23.306;2023-05-07T01:09:10;6.85;;;5.03;;
20118;SDS011;10220;42.716;23.306;2023-05-07T01:11:36;7.03;;;4.82;;
20118;SDS011;10220;42.716;23.306;2023-05-07T01:14:02;9.98;;;4.65;;
20118;SDS011;10220;42.716;23.306;2023-05-07T01:16:28;8.13;;;4.50;;
20118;SDS011;10220;42.716;23.306;2023-05-07T01:18:54;11.55;;;5.47;;
20118;SDS011;10220;42.716;23.306;2023-05-07T01:21:21;8.35;;;4.28;;
20118;SDS011;10220;42.716;23.306;2023-05-07T01:23:51;6.30;;;4.60;;
20118;SDS011;10220;42.716;23.306;2023-05-07T01:26:17;7.28;;;4.97;;
20118;SDS011;10220;42.716;23.306;2023-05-07T01:28:44;7.40;;;4.72;;
20118;SDS011;10220;42.716;23.306;2023-05-07T01:31:10;8.93;;;5.00;;
20118;SDS011;10220;42.716;23.306;2023-05-07T01:33:37;6.25;;;4.75;;
20118;SDS011;10220;42.716;23.306;2023-05-07T01:36:05;5.53;;;4.28;;
20118;SDS011;10220;42.716;23.306;2023-05-07T01:38:33;8.10;;;5.10;;
20118;SDS011;10220;42.716;23.306;2023-05-07T01:41:01;7.30;;;5.13;;
20118;SDS011;10220;42.716;23.306;2023-05-07T01:43:27;8.48;;;4.78;;
20118;SDS011;10220;42.716;23.306;2023-05-07T01:45:54;6.80;;;4.82;;
20118;SDS011;10220;42.716;23.306;2023-05-07T01:48:20;6.97;;;4.80;;
20118;SDS011;10220;42.716;23.306;2023-05-07T01:50:46;7.15;;;4.45;;
20118;SDS011;10220;42.716;23.306;2023-05-07T01:53:12;6.18;;;4.70;;
20118;SDS011;10220;42.716;23.306;2023-05-07T01:55:37;6.03;;;4.25;;
20118;SDS011;10220;42.716;23.306;2023-05-07T01:58:03;7.22;;;4.43;;
20118;SDS011;10220;42.716;23.306;2023-05-07T02:00:29;6.70;;;4.10;;
20118;SDS011;10220;42.716;23.306;2023-05-07T02:02:54;6.78;;;4.85;;
20118;SDS011;10220;42.716;23.306;2023-05-07T02:05:20;7.30;;;4.78;;
20118;SDS011;10220;42.716;23.306;2023-05-07T02:07:46;11.32;;;5.03;;
20118;SDS011;10220;42.716;23.306;2023-05-07T02:10:11;7.07;;;5.32;;
20118;SDS011;10220;42.716;23.306;2023-05-07T02:12:37;7.28;;;4.65;;
20118;SDS011;10220;42.716;23.306;2023-05-07T02:15:02;8.20;;;4.93;;
20118;SDS011;10220;42.716;23.306;2023-05-07T02:17:28;6.10;;;4.40;;
20118;SDS011;10220;42.716;23.306;2023-05-07T02:19:56;11.15;;;5.00;;
20118;SDS011;10220;42.716;23.306;2023-05-07T02:22:22;5.95;;;4.88;;
20118;SDS011;10220;42.716;23.306;2023-05-07T02:24:47;6.78;;;3.97;;
20118;SDS011;10220;42.716;23.306;2023-05-07T02:27:14;5.85;;;4.50;;
20118;SDS011;10220;42.716;23.306;2023-05-07T02:29:39;7.43;;;3.85;;
20118;SDS011;10220;42.716;23.306;2023-05-07T02:32:05;7.55;;;4.07;;
20118;SDS011;10220;42.716;23.306;2023-05-07T02:34:30;5.82;;;4.28;;
20118;SDS011;10220;42.716;23.306;2023-05-07T02:36:55;4.65;;;3.70;;
20118;SDS011;10220;42.716;23.306;2023-05-07T02:39:21;5.75;;;3.88;;
20118;SDS011;10220;42.716;23.306;2023-05-07T02:41:47;8.95;;;4.82;;
20118;SDS011;10220;42.716;23.306;2023-05-07T02:44:12;6.85;;;4.45;;
20118;SDS011;10220;42.716;23.306;2023-05-07T02:46:40;5.93;;;4.18;;
20118;SDS011;10220;42.716;23.306;2023-05-07T02:49:07;5.72;;;3.95;;
20118;SDS011;10220;42.716;23.306;2023-05-07T02:51:33;6.68;;;4.80;;
20118;SDS011;10220;42.716;23.306;2023-05-07T02:53:58;6.78;;;4.05;;
20118;SDS011;10220;42.716;23.306;2023-05-07T02:56:26;7.63;;;4.00;;
20118;SDS011;10220;42.716;23.306;2023-05-07T02:58:51;6.25;;;4.28;;
20118;SDS011;10220;42.716;23.306;2023-05-07T03:01:17;9.82;;;4.88;;
20118;SDS011;10220;42.716;23.306;2023-05-07T03:03:42;8.20;;;4.32;;
20118;SDS011;10220;42.716;23.306;2023-05-07T03:06:11;7.03;;;4.45;;
20118;SDS011;10220;42.716;23.306;2023-05-07T03:08:36;6.68;;;3.90;;
20118;SDS011;10220;42.716;23.306;2023-05-07T03:11:02;5.35;;;3.88;;
20118;SDS011;10220;42.716;23.306;2023-05-07T03:13:27;6.63;;;3.88;;
20118;SDS011;10220;42.716;23.306;2023-05-07T03:15:53;5.90;;;3.42;;
20118;SDS011;10220;42.716;23.306;2023-05-07T03:18:18;6.07;;;4.00;;
20118;SDS011;10220;42.716;23.306;2023-05-07T03:20:43;6.22;;;3.78;;
20118;SDS011;10220;42.716;23.306;2023-05-07T03:23:09;10.52;;;4.80;;
20118;SDS011;10220;42.716;23.306;2023-05-07T03:25:34;5.82;;;3.70;;
20118;SDS011;10220;42.716;23.306;2023-05-07T03:28:00;5.68;;;3.17;;
20118;SDS011;10220;42.716;23.306;2023-05-07T03:30:25;11.13;;;4.30;;
20118;SDS011;10220;42.716;23.306;2023-05-07T03:32:53;6.47;;;4.22;;
20118;SDS011;10220;42.716;23.306;2023-05-07T03:35:19;6.78;;;3.85;;
20118;SDS011;10220;42.716;23.306;2023-05-07T03:37:44;4.07;;;3.10;;
20118;SDS011;10220;42.716;23.306;2023-05-07T03:40:10;5.45;;;3.28;;
20118;SDS011;10220;42.716;23.306;2023-05-07T03:42:36;4.70;;;3.70;;
20118;SDS011;10220;42.716;23.306;2023-05-07T03:45:01;4.18;;;3.17;;
20118;SDS011;10220;42.716;23.306;2023-05-07T03:47:27;8.32;;;4.32;;
20118;SDS011;10220;42.716;23.306;2023-05-07T03:49:52;4.97;;;3.45;;
20118;SDS011;10220;42.716;23.306;2023-05-07T03:52:18;10.57;;;4.43;;
20118;SDS011;10220;42.716;23.306;2023-05-07T03:54:48;4.18;;;3.60;;
20118;SDS011;10220;42.716;23.306;2023-05-07T03:57:14;4.75;;;3.47;;
20118;SDS011;10220;42.716;23.306;2023-05-07T03:59:40;4.72;;;3.70;;
20118;SDS011;10220;42.716;23.306;2023-05-07T04:02:05;5.88;;;3.92;;
20118;SDS011;10220;42.716;23.306;2023-05-07T04:04:31;5.57;;;4.03;;
20118;SDS011;10220;42.716;23.306;2023-05-07T04:06:57;5.53;;;3.85;;
20118;SDS011;10220;42.716;23.306;2023-05-07T04:09:24;6.63;;;3.60;;
20118;SDS011;10220;42.716;23.306;2023-05-07T04:11:50;5.75;;;3.85;;
20118;SDS011;10220;42.716;23.306;2023-05-07T04:14:15;5.78;;;3.92;;
20118;SDS011;10220;42.716;23.306;2023-05-07T04:16:41;4.60;;;3.17;;
20118;SDS011;10220;42.716;23.306;2023-05-07T04:19:06;6.18;;;3.80;;
20118;SDS011;10220;42.716;23.306;2023-05-07T04:21:31;5.40;;;3.13;;
20118;SDS011;10220;42.716;23.306;2023-05-07T04:23:57;5.00;;;3.75;;
20118;SDS011;10220;42.716;23.306;2023-05-07T04:26:22;13.35;;;4.57;;
20118;SDS011;10220;42.716;23.306;2023-05-07T04:28:49;6.32;;;3.90;;
20118;SDS011;10220;42.716;23.306;2023-05-07T04:31:14;4.18;;;3.17;;
20118;SDS011;10220;42.716;23.306;2023-05-07T04:33:40;9.40;;;4.60;;
20118;SDS011;10220;42.716;23.306;2023-05-07T04:36:08;6.93;;;4.45;;
20118;SDS011;10220;42.716;23.306;2023-05-07T04:38:33;5.47;;;3.85;;
20118;SDS011;10220;42.716;23.306;2023-05-07T04:41:02;8.30;;;4.95;;
20118;SDS011;10220;42.716;23.306;2023-05-07T04:43:29;6.88;;;3.90;;
20118;SDS011;10220;42.716;23.306;2023-05-07T04:45:54;6.25;;;3.88;;
20118;SDS011;10220;42.716;23.306;2023-05-07T04:48:20;7.00;;;4.45;;
20118;SDS011;10220;42.716;23.306;2023-05-07T04:50:49;6.40;;;4.57;;
20118;SDS011;10220;42.716;23.306;2023-05-07T04:53:14;6.07;;;4.40;;
20118;SDS011;10220;42.716;23.306;2023-05-07T04:55:40;6.90;;;4.80;;
20118;SDS011;10220;42.716;23.306;2023-05-07T04:58:05;8.30;;;4.72;;
20118;SDS011;10220;42.716;23.306;2023-05-07T05:00:32;6.25;;;4.45;;
20118;SDS011;10220;42.716;23.306;2023-05-07T05:02:58;7.53;;;4.68;;
20118;SDS011;10220;42.716;23.306;2023-05-07T05:05:23;8.10;;;4.93;;
20118;SDS011;10220;42.716;23.306;2023-05-07T05:07:49;7.70;;;5.03;;
20118;SDS011;10220;42.716;23.306;2023-05-07T05:10:15;6.35;;;5.05;;
20118;SDS011;10220;42.716;23.306;2023-05-07T05:12:41;7.63;;;5.18;;
20118;SDS011;10220;42.716;23.306;2023-05-07T05:15:06;9.38;;;4.43;;
20118;SDS011;10220;42.716;23.306;2023-05-07T05:17:32;8.98;;;5.10;;
20118;SDS011;10220;42.716;23.306;2023-05-07T05:19:59;8.45;;;6.30;;
20118;SDS011;10220;42.716;23.306;2023-05-07T05:22:25;8.43;;;5.40;;
20118;SDS011;10220;42.716;23.306;2023-05-07T05:24:50;10.10;;;5.35;;
20118;SDS011;10220;42.716;23.306;2023-05-07T05:27:16;9.15;;;5.53;;
20118;SDS011;10220;42.716;23.306;2023-05-07T05:29:41;8.90;;;4.78;;
20118;SDS011;10220;42.716;23.306;2023-05-07T05:32:07;5.85;;;4.50;;
20118;SDS011;10220;42.716;23.306;2023-05-07T05:34:32;8.98;;;4.72;;
20118;SDS011;10220;42.716;23.306;2023-05-07T05:36:58;7.25;;;4.47;;
20118;SDS011;10220;42.716;23.306;2023-05-07T05:39:24;7.88;;;5.40;;
20118;SDS011;10220;42.716;23.306;2023-05-07T05:41:50;7.35;;;5.10;;
20118;SDS011;10220;42.716;23.306;2023-05-07T05:44:15;10.05;;;4.72;;
20118;SDS011;10220;42.716;23.306;2023-05-07T05:46:40;11.85;;;5.30;;
20118;SDS011;10220;42.716;23.306;2023-05-07T05:49:06;10.70;;;5.53;;
20118;SDS011;10220;42.716;23.306;2023-05-07T05:51:32;8.00;;;4.95;;
20118;SDS011;10220;42.716;23.306;2023-05-07T05:53:57;8.88;;;5.30;;
20118;SDS011;10220;42.716;23.306;2023-05-07T05:56:22;6.15;;;4.68;;
20118;SDS011;10220;42.716;23.306;2023-05-07T05:58:48;6.85;;;4.88;;
20118;SDS011;10220;42.716;23.306;2023-05-07T06:01:13;6.78;;;5.18;;
20118;SDS011;10220;42.716;23.306;2023-05-07T06:03:48;7.28;;;5.30;;
20118;SDS011;10220;42.716;23.306;2023-05-07T06:06:13;8.80;;;5.82;;
20118;SDS011;10220;42.716;23.306;2023-05-07T06:08:39;7.70;;;4.93;;
20118;SDS011;10220;42.716;23.306;2023-05-07T06:11:05;7.40;;;6.03;;
20118;SDS011;10220;42.716;23.306;2023-05-07T06:13:30;10.68;;;5.40;;
20118;SDS011;10220;42.716;23.306;2023-05-07T06:15:56;7.43;;;5.70;;
20118;SDS011;10220;42.716;23.306;2023-05-07T06:18:21;7.97;;;5.03;;
20118;SDS011;10220;42.716;23.306;2023-05-07T06:20:48;9.07;;;5.10;;
20118;SDS011;10220;42.716;23.306;2023-05-07T06:23:14;13.65;;;5.95;;
20118;SDS011;10220;42.716;23.306;2023-05-07T06:25:39;7.05;;;5.38;;
20118;SDS011;10220;42.716;23.306;2023-05-07T06:28:05;8.48;;;5.63;;
20118;SDS011;10220;42.716;23.306;2023-05-07T06:30:31;15.55;;;8.85;;
20118;SDS011;10220;42.716;23.306;2023-05-07T06:32:56;7.78;;;5.22;;
20118;SDS011;10220;42.716;23.306;2023-05-07T06:35:24;8.43;;;5.97;;
20118;SDS011;10220;42.716;23.306;2023-05-07T06:37:49;9.25;;;5.65;;
20118;SDS011;10220;42.716;23.306;2023-05-07T06:40:15;12.05;;;5.88;;
20118;SDS011;10220;42.716;23.306;2023-05-07T06:42:40;7.25;;;5.53;;
20118;SDS011;10220;42.716;23.306;2023-05-07T06:45:06;10.82;;;5.85;;
20118;SDS011;10220;42.716;23.306;2023-05-07T06:47:32;14.05;;;7.70;;
20118;SDS011;10220;42.716;23.306;2023-05-07T06:49:57;8.02;;;5.30;;
20118;SDS011;10220;42.716;23.306;2023-05-07T06:52:25;7.97;;;5.13;;
20118;SDS011;10220;42.716;23.306;2023-05-07T06:54:51;9.40;;;5.40;;
20118;SDS011;10220;42.716;23.306;2023-05-07T06:57:16;8.13;;;5.00;;
20118;SDS011;10220;42.716;23.306;2023-05-07T06:59:44;8.02;;;5.90;;
20118;SDS011;10220;42.716;23.306;2023-05-07T07:02:10;8.02;;;5.05;;
20118;SDS011;10220;42.716;23.306;2023-05-07T07:04:35;8.80;;;5.63;;
20118;SDS011;10220;42.716;23.306;2023-05-07T07:07:01;14.40;;;5.57;;
20118;SDS011;10220;42.716;23.306;2023-05-07T07:09:26;11.20;;;5.72;;
20118;SDS011;10220;42.716;23.306;2023-05-07T07:11:51;18.85;;;8.48;;
20118;SDS011;10220;42.716;23.306;2023-05-07T07:14:17;12.48;;;6.30;;
20118;SDS011;10220;42.716;23.306;2023-05-07T07:16:45;17.08;;;8.15;;
20118;SDS011;10220;42.716;23.306;2023-05-07T07:19:11;10.02;;;6.80;;
20118;SDS011;10220;42.716;23.306;2023-05-07T07:21:48;19.25;;;10.13;;
20118;SDS011;10220;42.716;23.306;2023-05-07T07:24:35;25.92;;;12.00;;
20118;SDS011;10220;42.716;23.306;2023-05-07T07:27:00;8.40;;;5.75;;
20118;SDS011;10220;42.716;23.306;2023-05-07T07:29:26;8.65;;;5.82;;
20118;SDS011;10220;42.716;23.306;2023-05-07T07:31:54;6.95;;;5.10;;
20118;SDS011;10220;42.716;23.306;2023-05-07T07:50:33;8.05;;;5.18;;
20118;SDS011;10220;42.716;23.306;2023-05-07T07:53:44;6.28;;;4.60;;
20118;SDS011;10220;42.716;23.306;2023-05-07T07:56:42;7.07;;;4.47;;
20118;SDS011;10220;42.716;23.306;2023-05-07T07:59:07;13.27;;;6.38;;
20118;SDS011;10220;42.716;23.306;2023-05-07T08:01:33;10.68;;;4.93;;
20118;SDS011;10220;42.716;23.306;2023-05-07T08:03:58;8.35;;;4.93;;
20118;SDS011;10220;42.716;23.306;2023-05-07T08:06:24;10.48;;;5.03;;
20118;SDS011;10220;42.716;23.306;2023-05-07T08:08:50;11.95;;;6.15;;
20118;SDS011;10220;42.716;23.306;2023-05-07T08:11:17;5.68;;;4.63;;
20118;SDS011;10220;42.716;23.306;2023-05-07T08:13:45;9.43;;;5.00;;
20118;SDS011;10220;42.716;23.306;2023-05-07T08:16:11;6.40;;;4.30;;
20118;SDS011;10220;42.716;23.306;2023-05-07T08:18:36;8.38;;;4.43;;
20118;SDS011;10220;42.716;23.306;2023-05-07T08:21:02;7.53;;;4.32;;
20118;SDS011;10220;42.716;23.306;2023-05-07T08:23:27;6.63;;;4.47;;
20118;SDS011;10220;42.716;23.306;2023-05-07T08:25:53;5.47;;;3.83;;
20118;SDS011;10220;42.716;23.306;2023-05-07T08:28:18;17.30;;;8.80;;
20118;SDS011;10220;42.716;23.306;2023-05-07T08:30:44;6.25;;;5.00;;
20118;SDS011;10220;42.716;23.306;2023-05-07T08:33:10;11.68;;;6.35;;
20118;SDS011;10220;42.716;23.306;2023-05-07T08:35:35;5.88;;;4.45;;
20118;SDS011;10220;42.716;23.306;2023-05-07T08:38:01;7.30;;;4.90;;
20118;SDS011;10220;42.716;23.306;2023-05-07T08:40:26;4.90;;;4.05;;
20118;SDS011;10220;42.716;23.306;2023-05-07T08:42:52;5.70;;;3.65;;
20118;SDS011;10220;42.716;23.306;2023-05-07T08:45:19;5.03;;;2.95;;
20118;SDS011;10220;42.716;23.306;2023-05-07T08:47:50;6.25;;;3.80;;
20118;SDS011;10220;42.716;23.306;2023-05-07T08:50:20;4.47;;;3.28;;
20118;SDS011;10220;42.716;23.306;2023-05-07T08:52:46;9.35;;;5.13;;
20118;SDS011;10220;42.716;23.306;2023-05-07T08:55:12;5.75;;;3.30;;
20118;SDS011;10220;42.716;23.306;2023-05-07T08:57:38;26.75;;;12.43;;
20118;SDS011;10220;42.716;23.306;2023-05-07T09:00:04;3.28;;;2.78;;
20118;SDS011;10220;42.716;23.306;2023-05-07T09:02:32;6.10;;;2.67;;
20118;SDS011;10220;42.716;23.306;2023-05-07T09:04:58;5.07;;;3.47;;
20118;SDS011;10220;42.716;23.306;2023-05-07T09:07:23;4.00;;;3.38;;
20118;SDS011;10220;42.716;23.306;2023-05-07T09:09:50;4.85;;;3.65;;
20118;SDS011;10220;42.716;23.306;2023-05-07T09:12:15;5.78;;;3.45;;
20118;SDS011;10220;42.716;23.306;2023-05-07T09:14:42;13.73;;;7.40;;
20118;SDS011;10220;42.716;23.306;2023-05-07T09:17:08;8.57;;;5.07;;
20118;SDS011;10220;42.716;23.306;2023-05-07T09:19:33;4.75;;;3.80;;
20118;SDS011;10220;42.716;23.306;2023-05-07T09:21:59;6.63;;;3.42;;
20118;SDS011;10220;42.716;23.306;2023-05-07T09:24:25;15.65;;;9.40;;
20118;SDS011;10220;42.716;23.306;2023-05-07T09:26:51;6.50;;;4.50;;
20118;SDS011;10220;42.716;23.306;2023-05-07T09:29:18;4.32;;;3.17;;
20118;SDS011;10220;42.716;23.306;2023-05-07T09:31:43;8.30;;;4.53;;
20118;SDS011;10220;42.716;23.306;2023-05-07T09:34:09;3.17;;;2.05;;
20118;SDS011;10220;42.716;23.306;2023-05-07T09:36:34;2.75;;;2.22;;
20118;SDS011;10220;42.716;23.306;2023-05-07T09:39:00;7.80;;;2.70;;
20118;SDS011;10220;42.716;23.306;2023-05-07T09:41:25;3.75;;;2.85;;
20118;SDS011;10220;42.716;23.306;2023-05-07T09:43:54;2.78;;;2.50;;
20118;SDS011;10220;42.716;23.306;2023-05-07T09:46:20;10.52;;;3.30;;
20118;SDS011;10220;42.716;23.306;2023-05-07T09:48:52;3.55;;;2.42;;
20118;SDS011;10220;42.716;23.306;2023-05-07T09:51:25;3.10;;;1.88;;
20118;SDS011;10220;42.716;23.306;2023-05-07T09:53:54;5.05;;;2.38;;
20118;SDS011;10220;42.716;23.306;2023-05-07T09:56:22;3.30;;;2.55;;
20118;SDS011;10220;42.716;23.306;2023-05-07T09:58:48;5.35;;;2.65;;
20118;SDS011;10220;42.716;23.306;2023-05-07T10:01:15;2.85;;;2.38;;
20118;SDS011;10220;42.716;23.306;2023-05-07T10:03:44;5.78;;;2.72;;
20118;SDS011;10220;42.716;23.306;2023-05-07T10:06:10;3.67;;;2.38;;
20118;SDS011;10220;42.716;23.306;2023-05-07T10:08:38;1.88;;;1.60;;
20118;SDS011;10220;42.716;23.306;2023-05-07T10:11:04;1.98;;;1.77;;
20118;SDS011;10220;42.716;23.306;2023-05-07T10:13:31;3.15;;;2.20;;
20118;SDS011;10220;42.716;23.306;2023-05-07T10:15:59;4.85;;;1.85;;
20118;SDS011;10220;42.716;23.306;2023-05-07T10:18:27;3.38;;;1.80;;
20118;SDS011;10220;42.716;23.306;2023-05-07T10:20:58;2.50;;;1.75;;
20118;SDS011;10220;42.716;23.306;2023-05-07T10:23:33;2.05;;;1.65;;
20118;SDS011;10220;42.716;23.306;2023-05-07T10:25:59;3.03;;;2.60;;
20118;SDS011;10220;42.716;23.306;2023-05-07T10:28:29;2.33;;;2.13;;
20118;SDS011;10220;42.716;23.306;2023-05-07T10:33:28;4.22;;;2.58;;
20118;SDS011;10220;42.716;23.306;2023-05-07T10:35:57;1.92;;;1.70;;
20118;SDS011;10220;42.716;23.306;2023-05-07T10:38:25;2.55;;;1.20;;
20118;SDS011;10220;42.716;23.306;2023-05-07T10:40:52;4.13;;;1.73;;
20118;SDS011;10220;42.716;23.306;2023-05-07T10:43:18;3.17;;;1.80;;
20118;SDS011;10220;42.716;23.306;2023-05-07T10:45:49;4.80;;;2.33;;
20118;SDS011;10220;42.716;23.306;2023-05-07T10:51:42;2.35;;;2.15;;
20118;SDS011;10220;42.716;23.306;2023-05-07T10:56:36;2.25;;;1.83;;
20118;SDS011;10220;42.716;23.306;2023-05-07T11:01:58;3.05;;;1.88;;
20118;SDS011;10220;42.716;23.306;2023-05-07T11:04:25;2.60;;;2.08;;
20118;SDS011;10220;42.716;23.306;2023-05-07T11:12:19;2.10;;;1.90;;
20118;SDS011;10220;42.716;23.306;2023-05-07T11:15:06;8.13;;;2.00;;
20118;SDS011;10220;42.716;23.306;2023-05-07T11:17:33;1.80;;;1.60;;
20118;SDS011;10220;42.716;23.306;2023-05-07T11:20:02;2.72;;;2.05;;
20118;SDS011;10220;42.716;23.306;2023-05-07T11:25:04;1.75;;;1.45;;
20118;SDS011;10220;42.716;23.306;2023-05-07T11:27:31;2.20;;;1.70;;
20118;SDS011;10220;42.716;23.306;2023-05-07T11:29:57;4.85;;;1.90;;
20118;SDS011;10220;42.716;23.306;2023-05-07T11:32:26;1.05;;;0.95;;
20118;SDS011;10220;42.716;23.306;2023-05-07T11:34:54;6.90;;;4.90;;
20118;SDS011;10220;42.716;23.306;2023-05-07T11:37:21;2.17;;;2.03;;
20118;SDS011;10220;42.716;23.306;2023-05-07T11:39:47;1.52;;;1.40;;
20118;SDS011;10220;42.716;23.306;2023-05-07T11:42:25;1.75;;;1.55;;
20118;SDS011;10220;42.716;23.306;2023-05-07T11:44:52;1.58;;;1.38;;
20118;SDS011;10220;42.716;23.306;2023-05-07T11:47:18;3.00;;;2.30;;
20118;SDS011;10220;42.716;23.306;2023-05-07T11:49:51;2.30;;;2.10;;
20118;SDS011;10220;42.716;23.306;2023-05-07T11:52:18;2.67;;;1.95;;
20118;SDS011;10220;42.716;23.306;2023-05-07T11:54:48;2.28;;;1.63;;
20118;SDS011;10220;42.716;23.306;2023-05-07T11:57:18;1.67;;;1.55;;
20118;SDS011;10220;42.716;23.306;2023-05-07T11:59:57;2.97;;;1.90;;
20118;SDS011;10220;42.716;23.306;2023-05-07T12:02:23;1.35;;;1.25;;
20118;SDS011;10220;42.716;23.306;2023-05-07T12:04:50;1.73;;;1.45;;
20118;SDS011;10220;42.716;23.306;2023-05-07T12:07:16;2.72;;;1.42;;
20118;SDS011;10220;42.716;23.306;2023-05-07T12:09:42;1.50;;;1.40;;
20118;SDS011;10220;42.716;23.306;2023-05-07T12:12:08;1.48;;;1.38;;
20118;SDS011;10220;42.716;23.306;2023-05-07T12:14:40;1.98;;;1.45;;
20118;SDS011;10220;42.716;23.306;2023-05-07T12:17:07;1.65;;;1.50;;
20118;SDS011;10220;42.716;23.306;2023-05-07T12:19:37;2.05;;;1.52;;
20118;SDS011;10220;42.716;23.306;2023-05-07T12:22:05;6.07;;;2.55;;
20118;SDS011;10220;42.716;23.306;2023-05-07T12:27:15;3.03;;;2.72;;
20118;SDS011;10220;42.716;23.306;2023-05-07T12:29:48;5.80;;;3.90;;
20118;SDS011;10220;42.716;23.306;2023-05-07T12:32:15;7.50;;;5.47;;
20118;SDS011;10220;42.716;23.306;2023-05-07T12:34:41;3.45;;;2.63;;
20118;SDS011;10220;42.716;23.306;2023-05-07T12:37:07;2.35;;;1.50;;
20118;SDS011;10220;42.716;23.306;2023-05-07T12:39:32;3.25;;;1.67;;
20118;SDS011;10220;42.716;23.306;2023-05-07T12:41:59;2.20;;;1.40;;
20118;SDS011;10220;42.716;23.306;2023-05-07T12:44:25;1.52;;;1.40;;
20118;SDS011;10220;42.716;23.306;2023-05-07T12:46:54;2.17;;;1.92;;
20118;SDS011;10220;42.716;23.306;2023-05-07T12:49:19;2.55;;;1.60;;
20118;SDS011;10220;42.716;23.306;2023-05-07T12:51:46;1.80;;;1.70;;
20118;SDS011;10220;42.716;23.306;2023-05-07T12:54:13;14.35;;;7.32;;
20118;SDS011;10220;42.716;23.306;2023-05-07T12:56:39;5.88;;;4.50;;
20118;SDS011;10220;42.716;23.306;2023-05-07T12:59:05;2.05;;;1.50;;
20118;SDS011;10220;42.716;23.306;2023-05-07T13:01:30;2.67;;;1.77;;
20118;SDS011;10220;42.716;23.306;2023-05-07T13:04:02;3.05;;;1.85;;
20118;SDS011;10220;42.716;23.306;2023-05-07T13:06:29;3.25;;;1.67;;
20118;SDS011;10220;42.716;23.306;2023-05-07T13:08:56;1.80;;;1.67;;
20118;SDS011;10220;42.716;23.306;2023-05-07T13:11:21;5.25;;;2.10;;
20118;SDS011;10220;42.716;23.306;2023-05-07T13:17:13;4.97;;;3.30;;
20118;SDS011;10220;42.716;23.306;2023-05-07T13:19:40;2.65;;;1.77;;
20118;SDS011;10220;42.716;23.306;2023-05-07T13:22:05;7.30;;;4.60;;
20118;SDS011;10220;42.716;23.306;2023-05-07T13:24:30;13.10;;;6.25;;
20118;SDS011;10220;42.716;23.306;2023-05-07T13:26:56;7.28;;;3.35;;
20118;SDS011;10220;42.716;23.306;2023-05-07T13:29:21;2.15;;;1.90;;
20118;SDS011;10220;42.716;23.306;2023-05-07T13:31:54;3.50;;;2.55;;
20118;SDS011;10220;42.716;23.306;2023-05-07T13:34:19;17.13;;;8.50;;
20118;SDS011;10220;42.716;23.306;2023-05-07T13:36:57;3.13;;;1.65;;
20118;SDS011;10220;42.716;23.306;2023-05-07T13:39:22;7.63;;;2.90;;
20118;SDS011;10220;42.716;23.306;2023-05-07T13:41:48;2.20;;;1.52;;
20118;SDS011;10220;42.716;23.306;2023-05-07T13:44:16;6.32;;;1.65;;
20118;SDS011;10220;42.716;23.306;2023-05-07T13:46:41;4.70;;;3.70;;
20118;SDS011;10220;42.716;23.306;2023-05-07T13:49:10;5.30;;;2.63;;
20118;SDS011;10220;42.716;23.306;2023-05-07T13:51:37;3.53;;;2.13;;
20118;SDS011;10220;42.716;23.306;2023-05-07T13:54:03;4.78;;;2.88;;
20118;SDS011;10220;42.716;23.306;2023-05-07T13:56:29;3.28;;;2.05;;
20118;SDS011;10220;42.716;23.306;2023-05-07T13:58:57;2.03;;;1.40;;
20118;SDS011;10220;42.716;23.306;2023-05-07T14:01:23;2.10;;;1.58;;
20118;SDS011;10220;42.716;23.306;2023-05-07T14:04:06;6.05;;;2.70;;
20118;SDS011;10220;42.716;23.306;2023-05-07T14:07:09;2.58;;;1.65;;
20118;SDS011;10220;42.716;23.306;2023-05-07T14:09:38;5.47;;;3.33;;
20118;SDS011;10220;42.716;23.306;2023-05-07T14:12:03;4.70;;;2.95;;
20118;SDS011;10220;42.716;23.306;2023-05-07T14:14:29;6.47;;;3.15;;
20118;SDS011;10220;42.716;23.306;2023-05-07T14:16:55;5.25;;;3.20;;
20118;SDS011;10220;42.716;23.306;2023-05-07T14:19:20;4.93;;;3.30;;
20118;SDS011;10220;42.716;23.306;2023-05-07T14:21:47;12.85;;;4.90;;
20118;SDS011;10220;42.716;23.306;2023-05-07T14:24:13;4.53;;;2.20;;
20118;SDS011;10220;42.716;23.306;2023-05-07T14:26:38;2.40;;;1.70;;
20118;SDS011;10220;42.716;23.306;2023-05-07T14:29:04;2.05;;;1.52;;
20118;SDS011;10220;42.716;23.306;2023-05-07T14:31:29;2.10;;;1.75;;
20118;SDS011;10220;42.716;23.306;2023-05-07T14:33:55;1.60;;;1.50;;
20118;SDS011;10220;42.716;23.306;2023-05-07T14:36:23;2.85;;;1.42;;
20118;SDS011;10220;42.716;23.306;2023-05-07T14:38:51;2.88;;;2.40;;
20118;SDS011;10220;42.716;23.306;2023-05-07T14:41:18;3.58;;;2.92;;
20118;SDS011;10220;42.716;23.306;2023-05-07T14:43:44;2.70;;;1.92;;
20118;SDS011;10220;42.716;23.306;2023-05-07T14:46:15;7.50;;;3.28;;
20118;SDS011;10220;42.716;23.306;2023-05-07T14:48:43;4.43;;;3.13;;
20118;SDS011;10220;42.716;23.306;2023-05-07T14:51:12;2.20;;;2.00;;
20118;SDS011;10220;42.716;23.306;2023-05-07T14:53:38;3.05;;;1.63;;
20118;SDS011;10220;42.716;23.306;2023-05-07T14:56:05;2.10;;;1.50;;
20118;SDS011;10220;42.716;23.306;2023-05-07T14:58:34;2.55;;;1.83;;
20118;SDS011;10220;42.716;23.306;2023-05-07T15:01:17;12.07;;;6.45;;
20118;SDS011;10220;42.716;23.306;2023-05-07T15:03:55;2.83;;;1.98;;
20118;SDS011;10220;42.716;23.306;2023-05-07T15:06:21;4.88;;;1.83;;
20118;SDS011;10220;42.716;23.306;2023-05-07T15:08:46;2.83;;;1.75;;
20118;SDS011;10220;42.716;23.306;2023-05-07T15:11:13;2.08;;;1.75;;
20118;SDS011;10220;42.716;23.306;2023-05-07T15:13:38;4.72;;;3.20;;